Time;durP1;ratioP1;P1;durP2;ratioP2;P2;SDS_P1;SDS_P2;PMS_P1;PMS_P2;Temp;Humidity;BMP_temperature;BMP_pressure;BME280_temperature;BME280_humidity;BME280_pressure;Samples;Min_cycle;Max_cycle;Signal;HPM_P1;HPM_P2
2023/04/02 00:01:13;;;;;;;1.65;0.43;;;;;;;;;;4988091;28;20137;-62
2023/04/02 00:03:52;;;;;;;5.90;0.73;;;;;;;;;;4938594;28;20042;-63
2023/04/02 00:06:53;;;;;;;3.70;1.00;;;;;;;;;;4973807;28;20954;-62
2023/04/02 00:09:15;;;;;;;7.20;1.30;;;;;;;;;;4973136;28;20676;-61
2023/04/02 00:11:43;;;;;;;3.60;0.80;;;;;;;;;;4971958;28;20557;-59
2023/04/02 00:14:28;;;;;;;3.42;0.70;;;;;;;;;;4974184;28;20046;-63
2023/04/02 00:16:56;;;;;;;1.83;0.47;;;;;;;;;;4973604;28;20038;-67
2023/04/02 00:19:45;;;;;;;2.05;0.50;;;;;;;;;;4967111;28;20046;-63
2023/04/02 00:22:15;;;;;;;9.98;1.00;;;;;;;;;;4968198;28;20120;-61
2023/04/02 00:24:42;;;;;;;3.33;0.70;;;;;;;;;;4973255;28;20042;-62
2023/04/02 00:27:13;;;;;;;2.70;0.70;;;;;;;;;;4974576;28;20586;-60
2023/04/02 00:29:46;;;;;;;2.75;0.75;;;;;;;;;;4967640;28;20050;-59
2023/04/02 00:32:20;;;;;;;2.40;0.80;;;;;;;;;;4973502;28;20067;-61
2023/04/02 00:34:46;;;;;;;;;;;;;;;;;;4974317;28;20051;-65
2023/04/02 00:37:22;;;;;;;8.00;2.20;;;;;;;;;;4974117;28;19922;-65
2023/04/02 00:39:51;;;;;;;2.25;0.57;;;;;;;;;;4973553;28;20050;-64
2023/04/02 00:42:18;;;;;;;3.47;0.43;;;;;;;;;;4974372;28;20046;-65
2023/04/02 00:44:45;;;;;;;4.68;0.68;;;;;;;;;;4973382;28;20054;-66
2023/04/02 00:47:30;;;;;;;2.03;0.50;;;;;;;;;;4974443;28;20047;-60
2023/04/02 00:49:59;;;;;;;2.58;0.60;;;;;;;;;;4972635;28;20482;-61
2023/04/02 00:52:27;;;;;;;3.13;0.70;;;;;;;;;;4969803;28;20935;-60
2023/04/02 00:55:04;;;;;;;9.73;0.60;;;;;;;;;;4967661;28;20039;-59
2023/04/02 00:57:32;;;;;;;2.95;0.80;;;;;;;;;;4973827;28;20736;-59
2023/04/02 00:59:59;;;;;;;6.32;1.20;;;;;;;;;;4973467;28;20172;-61
2023/04/02 01:02:31;;;;;;;12.13;1.20;;;;;;;;;;4972057;28;20036;-63
2023/04/02 01:05:02;;;;;;;6.85;1.92;;;;;;;;;;4973613;28;20746;-64
2023/04/02 01:07:44;;;;;;;9.55;1.80;;;;;;;;;;4973973;28;20046;-60
2023/04/02 01:10:10;;;;;;;6.00;1.13;;;;;;;;;;4973034;28;20050;-61
2023/04/02 01:13:06;;;;;;;4.80;0.90;;;;;;;;;;4972133;28;20129;-59
2023/04/02 01:15:39;;;;;;;4.25;1.02;;;;;;;;;;4958680;28;20034;-59
2023/04/02 01:18:17;;;;;;;4.38;0.73;;;;;;;;;;4973468;28;20554;-61
2023/04/02 01:21:00;;;;;;;5.25;1.23;;;;;;;;;;4972885;28;20783;-62
2023/04/02 01:23:51;;;;;;;9.23;1.75;;;;;;;;;;4974259;28;20070;-61
2023/04/02 01:26:26;;;;;;;8.02;2.47;;;;;;;;;;4968556;28;20045;-61
2023/04/02 01:29:12;;;;;;;11.70;2.38;;;;;;;;;;4971288;28;20038;-61
2023/04/02 01:31:39;;;;;;;12.88;3.42;;;;;;;;;;4983696;28;20111;-59
2023/04/02 01:34:12;;;;;;;10.38;4.90;;;;;;;;;;4972548;28;20117;-60
2023/04/02 01:36:43;;;;;;;27.13;10.13;;;;;;;;;;4967548;28;20043;-61
2023/04/02 01:39:24;;;;;;;18.67;3.17;;;;;;;;;;4973094;28;20043;-60
2023/04/02 01:42:12;;;;;;;5.45;1.92;;;;;;;;;;4972173;28;20058;-59
2023/04/02 01:44:41;;;;;;;14.32;1.85;;;;;;;;;;4972179;28;20057;-60
2023/04/02 01:47:13;;;;;;;12.45;1.48;;;;;;;;;;4988056;28;20078;-58
2023/04/02 01:49:41;;;;;;;12.88;2.13;;;;;;;;;;4971549;28;20049;-59
2023/04/02 01:52:08;;;;;;;13.15;2.40;;;;;;;;;;4971718;28;20064;-63
2023/04/02 01:54:40;;;;;;;9.02;1.73;;;;;;;;;;4972024;28;20649;-61
2023/04/02 01:57:07;;;;;;;22.77;2.65;;;;;;;;;;4973534;28;20046;-63
2023/04/02 01:59:34;;;;;;;9.13;1.83;;;;;;;;;;4971469;28;20094;-61
2023/04/02 02:02:03;;;;;;;8.52;1.63;;;;;;;;;;4964484;28;20871;-60
2023/04/02 02:04:31;;;;;;;11.25;1.50;;;;;;;;;;4971527;28;20177;-61
2023/04/02 02:07:02;;;;;;;4.80;1.52;;;;;;;;;;4972183;28;21086;-61
2023/04/02 02:09:31;;;;;;;12.02;2.47;;;;;;;;;;4972471;28;20042;-61
2023/04/02 02:11:58;;;;;;;6.43;1.40;;;;;;;;;;4965796;28;20048;-65
2023/04/02 02:14:26;;;;;;;7.40;1.65;;;;;;;;;;4973319;28;20080;-64
2023/04/02 02:16:56;;;;;;;4.90;1.60;;;;;;;;;;4970200;28;20034;-60
2023/04/02 02:19:27;;;;;;;8.82;1.52;;;;;;;;;;4971266;28;20045;-63
2023/04/02 02:22:06;;;;;;;4.22;1.45;;;;;;;;;;4972030;28;20034;-63
2023/04/02 02:24:34;;;;;;;13.90;2.08;;;;;;;;;;4971767;28;20042;-65
2023/04/02 02:27:01;;;;;;;8.95;1.75;;;;;;;;;;4971718;28;20149;-63
2023/04/02 02:29:28;;;;;;;7.82;2.20;;;;;;;;;;4967140;28;20122;-65
2023/04/02 02:31:55;;;;;;;9.32;2.03;;;;;;;;;;4971570;28;20049;-64
2023/04/02 02:34:25;;;;;;;7.57;1.50;;;;;;;;;;4971869;28;20988;-62
2023/04/02 02:36:54;;;;;;;5.85;1.80;;;;;;;;;;4972452;28;20217;-64
2023/04/02 02:39:24;;;;;;;24.10;10.98;;;;;;;;;;4972190;28;20145;-65
2023/04/02 02:41:57;;;;;;;10.15;3.35;;;;;;;;;;4966577;28;20054;-64
2023/04/02 02:44:25;;;;;;;19.08;4.93;;;;;;;;;;4969571;28;20545;-61
2023/04/02 02:46:54;;;;;;;12.57;2.80;;;;;;;;;;4973922;28;20704;-62
2023/04/02 02:49:29;;;;;;;10.32;3.17;;;;;;;;;;4975521;28;20049;-65
2023/04/02 02:51:58;;;;;;;12.82;3.38;;;;;;;;;;4974381;28;20038;-66
2023/04/02 02:54:25;;;;;;;12.65;3.88;;;;;;;;;;4974300;28;20034;-66
2023/04/02 02:56:55;;;;;;;9.98;2.85;;;;;;;;;;4975668;28;20042;-62
2023/04/02 02:59:22;;;;;;;15.77;3.15;;;;;;;;;;4974238;28;20066;-65
2023/04/02 03:01:49;;;;;;;8.35;2.53;;;;;;;;;;4974505;28;20046;-65
2023/04/02 03:04:21;;;;;;;7.10;2.30;;;;;;;;;;4974809;28;20046;-64
2023/04/02 03:06:51;;;;;;;8.38;2.15;;;;;;;;;;4975793;28;20049;-64
2023/04/02 03:09:18;;;;;;;13.10;2.35;;;;;;;;;;4976026;28;20042;-62
2023/04/02 03:11:45;;;;;;;10.07;2.00;;;;;;;;;;4972921;28;20038;-62
2023/04/02 03:14:32;;;;;;;4.95;1.52;;;;;;;;;;4974947;28;20355;-61
2023/04/02 03:17:10;;;;;;;9.80;1.70;;;;;;;;;;4974767;28;20097;-64
2023/04/02 03:19:45;;;;;;;13.65;2.60;;;;;;;;;;4974361;28;20050;-64
2023/04/02 03:22:19;;;;;;;14.82;2.05;;;;;;;;;;4975067;28;20081;-61
2023/04/02 03:24:45;;;;;;;;;;;;;;;;;;4975388;28;20633;-61
2023/04/02 03:27:15;;;;;;;15.40;1.80;;;;;;;;;;4975133;28;20469;-63
2023/04/02 03:29:45;;;;;;;7.40;1.42;;;;;;;;;;4974323;28;20593;-62
2023/04/02 03:32:14;;;;;;;8.55;1.58;;;;;;;;;;4975073;28;20047;-65
2023/04/02 03:34:47;;;;;;;9.90;1.95;;;;;;;;;;4975055;28;20812;-65
2023/04/02 03:37:17;;;;;;;4.45;1.80;;;;;;;;;;4973152;28;20104;-62
2023/04/02 03:39:46;;;;;;;5.85;1.67;;;;;;;;;;4974478;28;20050;-62
2023/04/02 03:42:19;;;;;;;6.35;1.38;;;;;;;;;;4974880;28;20047;-63
2023/04/02 03:44:54;;;;;;;10.15;2.00;;;;;;;;;;4973901;28;20054;-64
2023/04/02 03:47:36;;;;;;;5.43;1.52;;;;;;;;;;4974509;28;20053;-63
2023/04/02 03:50:06;;;;;;;10.65;1.50;;;;;;;;;;4974082;28;20043;-65
2023/04/02 03:52:34;;;;;;;7.97;1.77;;;;;;;;;;4973872;28;20066;-65
2023/04/02 03:55:02;;;;;;;9.32;1.88;;;;;;;;;;4974672;28;20109;-63
2023/04/02 03:57:35;;;;;;;11.25;1.95;;;;;;;;;;4973969;28;20046;-65
2023/04/02 04:00:25;;;;;;;13.02;2.50;;;;;;;;;;4972788;28;20053;-65
2023/04/02 04:02:56;;;;;;;8.77;2.00;;;;;;;;;;4970641;28;20125;-64
2023/04/02 04:05:26;;;;;;;18.50;2.10;;;;;;;;;;4974687;28;20153;-64
2023/04/02 04:07:53;;;;;;;9.55;2.17;;;;;;;;;;4974129;28;20046;-64
2023/04/02 04:10:23;;;;;;;8.60;1.70;;;;;;;;;;4973075;28;20368;-63
2023/04/02 04:12:51;;;;;;;6.78;1.58;;;;;;;;;;4974308;28;20042;-63
2023/04/02 04:15:31;;;;;;;4.50;1.40;;;;;;;;;;4973722;28;20064;-63
2023/04/02 04:18:01;;;;;;;6.53;1.10;;;;;;;;;;4972732;28;20034;-63
2023/04/02 04:20:34;;;;;;;4.38;0.60;;;;;;;;;;4971058;28;20050;-63
2023/04/02 04:23:28;;;;;;;6.45;0.88;;;;;;;;;;4974099;28;20051;-63
2023/04/02 04:26:18;;;;;;;3.40;0.60;;;;;;;;;;4972890;28;20049;-64
2023/04/02 04:28:58;;;;;;;5.07;0.80;;;;;;;;;;4973594;28;20042;-61
2023/04/02 04:31:54;;;;;;;1.90;0.50;;;;;;;;;;4973291;28;20053;-63
2023/04/02 04:34:35;;;;;;;2.90;0.60;;;;;;;;;;4967237;28;20072;-63
2023/04/02 04:37:06;;;;;;;1.98;0.45;;;;;;;;;;4973835;28;20049;-62
2023/04/02 04:39:33;;;;;;;3.00;0.50;;;;;;;;;;4973644;28;20042;-63
2023/04/02 04:42:02;;;;;;;1.17;0.40;;;;;;;;;;4973014;28;20052;-63
2023/04/02 04:45:03;;;;;;;1.67;0.40;;;;;;;;;;4971771;28;20053;-65
2023/04/02 04:47:35;;;;;;;1.58;0.50;;;;;;;;;;4968867;28;20496;-65
2023/04/02 04:50:04;;;;;;;1.45;0.50;;;;;;;;;;4971971;28;20038;-66
2023/04/02 04:52:36;;;;;;;1.02;0.40;;;;;;;;;;4971901;28;20053;-65
2023/04/02 04:55:03;;;;;;;1.73;0.50;;;;;;;;;;4973052;28;20076;-65
2023/04/02 04:57:31;;;;;;;2.38;0.35;;;;;;;;;;4972033;28;20045;-66
2023/04/02 05:00:18;;;;;;;0.82;0.40;;;;;;;;;;4971540;28;20397;-65
2023/04/02 05:02:52;;;;;;;1.00;0.40;;;;;;;;;;4971486;28;20098;-65
2023/04/02 05:05:21;;;;;;;1.80;0.50;;;;;;;;;;4973229;28;20042;-67
2023/04/02 05:07:53;;;;;;;1.35;0.50;;;;;;;;;;4973272;28;20042;-66
2023/04/02 05:10:34;;;;;;;2.45;0.60;;;;;;;;;;4971279;28;20046;-66
2023/04/02 05:13:03;;;;;;;1.85;0.50;;;;;;;;;;4973464;28;20103;-64
2023/04/02 05:15:30;;;;;;;1.73;0.60;;;;;;;;;;4972212;28;20133;-63
2023/04/02 05:18:05;;;;;;;1.67;0.50;;;;;;;;;;4973097;28;20034;-63
2023/04/02 05:20:42;;;;;;;1.88;0.60;;;;;;;;;;4970290;28;20050;-64
2023/04/02 05:23:14;;;;;;;2.85;0.50;;;;;;;;;;4970990;28;20042;-63
2023/04/02 05:26:10;;;;;;;2.30;0.50;;;;;;;;;;4964642;28;20044;-64
2023/04/02 05:28:51;;;;;;;2.25;0.55;;;;;;;;;;4957348;28;20062;-64
2023/04/02 05:31:26;;;;;;;4.78;0.60;;;;;;;;;;4968352;28;20046;-63
2023/04/02 05:33:54;;;;;;;1.98;0.57;;;;;;;;;;4971775;28;20141;-64
2023/04/02 05:36:22;;;;;;;3.30;0.70;;;;;;;;;;4975440;28;20141;-64
2023/04/02 05:38:50;;;;;;;3.72;0.60;;;;;;;;;;4971238;28;20788;-65
2023/04/02 05:41:25;;;;;;;3.08;0.63;;;;;;;;;;4974894;28;20137;-64
2023/04/02 05:43:58;;;;;;;2.45;0.77;;;;;;;;;;4974500;28;20066;-65
2023/04/02 05:46:27;;;;;;;2.13;0.60;;;;;;;;;;4971661;28;20125;-63
2023/04/02 05:48:56;;;;;;;2.55;0.60;;;;;;;;;;4973820;28;20276;-64
2023/04/02 05:51:30;;;;;;;1.67;0.70;;;;;;;;;;4972764;28;20053;-63
2023/04/02 05:53:59;;;;;;;1.95;0.70;;;;;;;;;;4973094;28;20046;-65
2023/04/02 05:56:30;;;;;;;1.73;0.50;;;;;;;;;;4973369;28;20520;-65
2023/04/02 05:59:10;;;;;;;1.45;0.50;;;;;;;;;;4974297;28;20680;-64
2023/04/02 06:01:44;;;;;;;2.88;0.80;;;;;;;;;;4971696;28;20066;-65
2023/04/02 06:04:16;;;;;;;2.20;0.63;;;;;;;;;;4973455;28;20081;-65
2023/04/02 06:06:46;;;;;;;2.08;0.57;;;;;;;;;;4973052;28;20046;-65
2023/04/02 06:09:22;;;;;;;1.73;0.60;;;;;;;;;;4973619;28;20050;-63
2023/04/02 06:11:52;;;;;;;2.50;0.68;;;;;;;;;;4972718;28;20553;-63
2023/04/02 06:14:19;;;;;;;2.53;0.77;;;;;;;;;;4971886;28;20041;-64
2023/04/02 06:16:46;;;;;;;2.50;0.70;;;;;;;;;;4972906;28;20136;-63
2023/04/02 06:19:27;;;;;;;1.77;0.50;;;;;;;;;;4973992;28;20455;-64
2023/04/02 06:21:58;;;;;;;2.22;0.73;;;;;;;;;;4972637;28;20518;-64
2023/04/02 06:24:27;;;;;;;3.17;0.98;;;;;;;;;;4972934;28;20124;-66
2023/04/02 06:26:57;;;;;;;2.90;1.10;;;;;;;;;;4972727;28;20039;-65
2023/04/02 06:29:30;;;;;;;3.58;1.23;;;;;;;;;;4974030;28;20097;-65
2023/04/02 06:31:58;;;;;;;2.90;1.07;;;;;;;;;;4972808;28;20038;-65
2023/04/02 06:34:26;;;;;;;3.08;1.38;;;;;;;;;;4973308;28;20339;-65
2023/04/02 06:36:58;;;;;;;3.60;1.60;;;;;;;;;;4973837;28;20043;-65
2023/04/02 06:39:25;;;;;;;3.10;1.20;;;;;;;;;;4972407;28;20593;-64
2023/04/02 06:42:04;;;;;;;4.97;1.60;;;;;;;;;;4972781;28;20104;-64
2023/04/02 06:44:37;;;;;;;3.00;1.30;;;;;;;;;;4972939;28;20208;-65
2023/04/02 06:47:13;;;;;;;3.20;1.30;;;;;;;;;;4974324;28;20074;-66
2023/04/02 06:49:40;;;;;;;4.93;1.20;;;;;;;;;;4974365;28;20124;-65
2023/04/02 06:52:13;;;;;;;2.58;0.90;;;;;;;;;;4974731;28;20518;-65
2023/04/02 06:54:40;;;;;;;2.50;0.80;;;;;;;;;;4974902;28;20050;-65
2023/04/02 06:57:07;;;;;;;3.17;0.90;;;;;;;;;;4974485;28;20034;-65
2023/04/02 06:59:33;;;;;;;2.28;0.60;;;;;;;;;;4967618;28;20311;-66
2023/04/02 07:02:05;;;;;;;3.88;0.85;;;;;;;;;;4974004;28;20116;-67
2023/04/02 07:04:32;;;;;;;2.78;0.77;;;;;;;;;;4974236;28;20043;-65
2023/04/02 07:06:59;;;;;;;1.83;0.60;;;;;;;;;;4974339;28;20559;-66
2023/04/02 07:09:26;;;;;;;1.98;0.60;;;;;;;;;;4973439;28;20399;-68
2023/04/02 07:11:53;;;;;;;2.50;0.73;;;;;;;;;;4969415;28;20080;-65
2023/04/02 07:14:19;;;;;;;4.63;0.65;;;;;;;;;;4973754;28;20100;-65
2023/04/02 07:16:46;;;;;;;1.77;0.60;;;;;;;;;;4972679;28;20050;-63
2023/04/02 07:19:18;;;;;;;3.13;0.63;;;;;;;;;;4974046;28;20042;-64
2023/04/02 07:21:44;;;;;;;1.92;0.60;;;;;;;;;;4975068;28;20061;-64
2023/04/02 07:24:11;;;;;;;2.50;0.60;;;;;;;;;;4975565;28;20046;-65
2023/04/02 07:26:38;;;;;;;2.90;0.50;;;;;;;;;;4973051;28;21681;-63
2023/04/02 07:29:07;;;;;;;5.75;0.55;;;;;;;;;;4973548;28;20739;-63
2023/04/02 07:31:33;;;;;;;2.67;0.60;;;;;;;;;;4971102;28;20188;-65
2023/04/02 07:34:00;;;;;;;0.90;0.40;;;;;;;;;;4976225;28;20448;-65
2023/04/02 07:36:29;;;;;;;1.13;0.40;;;;;;;;;;4976054;28;20035;-68
2023/04/02 07:38:56;;;;;;;2.40;0.55;;;;;;;;;;4976910;28;20359;-65
2023/04/02 07:41:22;;;;;;;1.75;0.43;;;;;;;;;;4976013;28;20124;-65
2023/04/02 07:43:49;;;;;;;0.85;0.40;;;;;;;;;;4977107;28;20117;-66
2023/04/02 07:46:17;;;;;;;0.52;0.30;;;;;;;;;;4976244;28;20046;-66
2023/04/02 07:48:45;;;;;;;1.83;0.50;;;;;;;;;;4988105;28;20038;-66
2023/04/02 07:51:17;;;;;;;0.32;0.30;;;;;;;;;;4969151;28;20046;-66
2023/04/02 07:53:44;;;;;;;1.90;0.60;;;;;;;;;;4975199;28;20042;-66
2023/04/02 07:56:16;;;;;;;1.45;0.50;;;;;;;;;;4977000;28;20141;-66
2023/04/02 07:58:44;;;;;;;1.60;0.60;;;;;;;;;;4965686;28;20038;-66
2023/04/02 08:01:16;;;;;;;3.95;0.65;;;;;;;;;;4975879;28;20530;-66
2023/04/02 08:03:42;;;;;;;1.45;0.52;;;;;;;;;;4977057;28;20038;-66
2023/04/02 08:06:09;;;;;;;0.65;0.30;;;;;;;;;;4973664;28;20037;-67
2023/04/02 08:08:36;;;;;;;1.70;0.50;;;;;;;;;;4984602;28;20066;-66
2023/04/02 08:11:02;;;;;;;1.50;0.50;;;;;;;;;;4972524;28;20031;-65
2023/04/02 08:13:30;;;;;;;0.57;0.30;;;;;;;;;;4975886;28;20053;-66
2023/04/02 08:16:01;;;;;;;2.15;0.35;;;;;;;;;;4977083;28;20042;-64
2023/04/02 08:18:30;;;;;;;1.88;0.63;;;;;;;;;;4974757;28;20589;-65
2023/04/02 08:20:57;;;;;;;0.47;0.32;;;;;;;;;;4972572;28;20407;-65
2023/04/02 08:23:23;;;;;;;5.10;0.50;;;;;;;;;;4975885;28;20065;-67
2023/04/02 08:25:50;;;;;;;1.30;0.40;;;;;;;;;;4990472;28;20498;-65
2023/04/02 08:28:17;;;;;;;0.43;0.30;;;;;;;;;;4975813;28;20080;-64
2023/04/02 08:30:44;;;;;;;1.98;0.40;;;;;;;;;;4975179;28;20035;-65
2023/04/02 08:33:11;;;;;;;1.52;0.40;;;;;;;;;;4976042;28;20073;-65
2023/04/02 08:35:37;;;;;;;0.40;0.30;;;;;;;;;;4977366;28;20045;-64
2023/04/02 08:38:04;;;;;;;1.55;0.50;;;;;;;;;;4984104;28;20503;-66
2023/04/02 08:40:34;;;;;;;3.47;0.50;;;;;;;;;;4978765;28;20368;-65
2023/04/02 08:43:03;;;;;;;0.82;0.32;;;;;;;;;;4971324;28;20046;-65
2023/04/02 08:45:44;;;;;;;0.98;0.40;;;;;;;;;;4975490;28;20904;-66
2023/04/02 08:48:12;;;;;;;0.95;0.40;;;;;;;;;;4976954;28;20134;-64
2023/04/02 08:50:42;;;;;;;2.08;0.60;;;;;;;;;;4975271;28;20038;-66
2023/04/02 08:53:17;;;;;;;0.90;0.40;;;;;;;;;;4977451;28;20482;-65
2023/04/02 08:56:04;;;;;;;1.77;0.55;;;;;;;;;;4975896;28;20172;-65
2023/04/02 08:58:46;;;;;;;1.55;0.60;;;;;;;;;;4975616;28;20125;-66
2023/04/02 09:01:33;;;;;;;1.23;0.60;;;;;;;;;;4974720;28;20054;-66
2023/04/02 09:04:00;;;;;;;2.05;0.50;;;;;;;;;;4975043;28;20173;-67
2023/04/02 09:06:28;;;;;;;1.40;0.50;;;;;;;;;;4977036;28;20735;-65
2023/04/02 09:08:55;;;;;;;1.33;0.40;;;;;;;;;;4982286;28;20534;-66
2023/04/02 09:11:31;;;;;;;1.73;0.50;;;;;;;;;;4975093;28;20049;-65
2023/04/02 09:14:00;;;;;;;1.63;0.52;;;;;;;;;;4972272;28;20452;-69
2023/04/02 09:16:36;;;;;;;1.17;0.50;;;;;;;;;;4974183;28;20049;-65
2023/04/02 09:19:03;;;;;;;2.75;0.70;;;;;;;;;;4977021;28;20677;-66
2023/04/02 09:21:43;;;;;;;0.95;0.40;;;;;;;;;;4972600;28;20119;-65
2023/04/02 09:24:12;;;;;;;2.72;0.63;;;;;;;;;;4989428;28;20483;-66
2023/04/02 09:26:39;;;;;;;0.82;0.40;;;;;;;;;;4971922;28;20051;-65
2023/04/02 09:29:12;;;;;;;1.48;0.40;;;;;;;;;;4971473;28;20402;-66
2023/04/02 09:31:41;;;;;;;0.93;0.43;;;;;;;;;;4973849;28;20043;-65
2023/04/02 09:34:28;;;;;;;0.60;0.30;;;;;;;;;;4972521;28;20049;-65
2023/04/02 09:36:55;;;;;;;0.47;0.30;;;;;;;;;;4974548;28;20988;-64
2023/04/02 09:39:27;;;;;;;1.20;0.55;;;;;;;;;;4965286;28;20034;-66
2023/04/02 09:41:53;;;;;;;4.03;0.40;;;;;;;;;;4969481;28;20054;-65
2023/04/02 09:44:25;;;;;;;2.10;0.50;;;;;;;;;;4974656;28;20399;-65
2023/04/02 09:46:53;;;;;;;1.52;0.45;;;;;;;;;;4975146;28;20050;-65
2023/04/02 09:49:22;;;;;;;1.35;0.40;;;;;;;;;;4972995;28;20079;-67
2023/04/02 09:52:07;;;;;;;1.77;0.55;;;;;;;;;;4974234;28;20050;-65
2023/04/02 09:54:41;;;;;;;2.35;0.50;;;;;;;;;;4974327;28;20043;-65
2023/04/02 09:57:37;;;;;;;0.82;0.35;;;;;;;;;;4974282;28;20050;-65
2023/04/02 10:00:18;;;;;;;1.10;0.40;;;;;;;;;;4969624;28;20065;-65
2023/04/02 10:02:47;;;;;;;1.35;0.40;;;;;;;;;;4972585;28;20058;-65
2023/04/02 10:05:18;;;;;;;1.45;0.40;;;;;;;;;;4975451;28;20100;-64
2023/04/02 10:07:47;;;;;;;4.57;0.57;;;;;;;;;;4973987;28;20034;-65
2023/04/02 10:10:29;;;;;;;1.10;0.47;;;;;;;;;;4974110;28;20129;-65
2023/04/02 10:13:01;;;;;;;1.80;0.50;;;;;;;;;;4986770;28;21275;-66
2023/04/02 10:15:31;;;;;;;1.73;0.50;;;;;;;;;;4965632;28;20045;-66
2023/04/02 10:18:13;;;;;;;1.63;0.50;;;;;;;;;;4969771;28;20043;-67
2023/04/02 10:20:41;;;;;;;1.15;0.40;;;;;;;;;;4966985;28;21038;-66
2023/04/02 10:23:14;;;;;;;0.85;0.40;;;;;;;;;;4972209;28;20077;-68
2023/04/02 10:25:42;;;;;;;1.83;0.50;;;;;;;;;;4976965;28;20033;-66
2023/04/02 10:28:18;;;;;;;1.75;0.50;;;;;;;;;;4973770;28;20138;-66
2023/04/02 10:30:58;;;;;;;2.63;0.70;;;;;;;;;;4989139;28;20096;-67
2023/04/02 10:33:31;;;;;;;0.57;0.40;;;;;;;;;;4966526;28;20058;-66
2023/04/02 10:36:04;;;;;;;1.25;0.50;;;;;;;;;;4995094;28;20049;-65
2023/04/02 10:38:46;;;;;;;2.60;0.60;;;;;;;;;;4994446;28;20086;-66
2023/04/02 10:41:27;;;;;;;1.95;0.60;;;;;;;;;;4975504;28;20147;-65
2023/04/02 10:43:57;;;;;;;0.93;0.40;;;;;;;;;;4988013;28;20050;-65
2023/04/02 10:46:31;;;;;;;1.00;0.40;;;;;;;;;;4973786;28;20097;-65
2023/04/02 10:49:21;;;;;;;1.33;0.45;;;;;;;;;;4967971;28;20460;-66
2023/04/02 10:51:57;;;;;;;1.13;0.43;;;;;;;;;;4964209;28;20046;-68
2023/04/02 10:54:27;;;;;;;3.05;0.60;;;;;;;;;;4972480;28;20042;-66
2023/04/02 10:56:54;;;;;;;1.30;0.50;;;;;;;;;;4973257;28;20861;-66
2023/04/02 10:59:25;;;;;;;1.27;0.40;;;;;;;;;;4983858;28;20046;-67
2023/04/02 11:02:24;;;;;;;1.92;0.60;;;;;;;;;;4941842;28;20050;-67
2023/04/02 11:04:52;;;;;;;1.20;0.45;;;;;;;;;;4944659;28;20531;-66
2023/04/02 11:07:21;;;;;;;1.65;0.60;;;;;;;;;;4944406;28;20157;-67
2023/04/02 11:09:50;;;;;;;2.92;0.60;;;;;;;;;;4946901;28;20049;-66
2023/04/02 11:12:21;;;;;;;2.08;0.63;;;;;;;;;;4946709;28;20047;-66
2023/04/02 11:14:49;;;;;;;1.52;0.50;;;;;;;;;;4945280;28;20071;-66
2023/04/02 11:17:16;;;;;;;1.27;0.50;;;;;;;;;;4946296;28;20377;-66
2023/04/02 11:19:43;;;;;;;1.92;0.60;;;;;;;;;;4946480;28;20118;-65
2023/04/02 11:22:15;;;;;;;1.92;0.55;;;;;;;;;;4944995;28;20123;-67
2023/04/02 11:24:47;;;;;;;2.00;0.40;;;;;;;;;;4946361;28;20630;-67
2023/04/02 11:27:16;;;;;;;1.33;0.40;;;;;;;;;;4946507;28;20031;-68
2023/04/02 11:29:45;;;;;;;1.17;0.43;;;;;;;;;;4946834;28;20035;-64
2023/04/02 11:32:26;;;;;;;1.38;0.55;;;;;;;;;;4945668;28;20058;-65
2023/04/02 11:34:53;;;;;;;1.38;0.50;;;;;;;;;;4975445;28;20550;-66
2023/04/02 11:37:34;;;;;;;2.13;0.60;;;;;;;;;;4974312;28;20089;-66
2023/04/02 11:40:04;;;;;;;1.55;0.55;;;;;;;;;;4975839;28;20718;-67
2023/04/02 11:42:32;;;;;;;1.52;0.50;;;;;;;;;;4988131;28;20046;-66
2023/04/02 11:45:19;;;;;;;1.65;0.50;;;;;;;;;;4976523;28;20057;-66
2023/04/02 11:48:12;;;;;;;0.90;0.40;;;;;;;;;;4973160;28;20038;-66
2023/04/02 11:50:43;;;;;;;9.32;0.57;;;;;;;;;;4971751;28;20054;-67
2023/04/02 11:53:13;;;;;;;4.35;0.50;;;;;;;;;;4967117;28;20038;-66
2023/04/02 11:56:05;;;;;;;1.85;0.50;;;;;;;;;;4975129;28;20049;-66
2023/04/02 11:58:50;;;;;;;4.72;0.60;;;;;;;;;;4975439;28;20197;-67
2023/04/02 12:01:20;;;;;;;1.55;0.45;;;;;;;;;;4969959;28;20062;-67
2023/04/02 12:03:46;;;;;;;1.27;0.40;;;;;;;;;;4975367;28;20046;-67
2023/04/02 12:06:26;;;;;;;1.45;0.50;;;;;;;;;;4976696;28;20043;-66
2023/04/02 12:08:55;;;;;;;1.48;0.57;;;;;;;;;;4975631;28;20042;-66
2023/04/02 12:11:32;;;;;;;1.40;0.50;;;;;;;;;;4975860;28;20403;-66
2023/04/02 12:13:59;;;;;;;1.13;0.35;;;;;;;;;;4975771;28;20042;-68
2023/04/02 12:16:31;;;;;;;2.95;0.50;;;;;;;;;;4975628;28;20046;-66
2023/04/02 12:18:59;;;;;;;3.40;0.50;;;;;;;;;;4966193;28;20042;-69
2023/04/02 12:21:27;;;;;;;1.98;0.50;;;;;;;;;;4971346;28;20158;-65
2023/04/02 12:23:56;;;;;;;4.70;0.50;;;;;;;;;;4975341;28;20062;-64
2023/04/02 12:26:29;;;;;;;1.88;0.60;;;;;;;;;;4976057;28;20165;-67
2023/04/02 12:29:14;;;;;;;1.38;0.60;;;;;;;;;;4975786;28;20073;-66
2023/04/02 12:31:45;;;;;;;1.73;0.50;;;;;;;;;;4974890;28;20050;-68
2023/04/02 12:34:15;;;;;;;0.88;0.35;;;;;;;;;;4991026;28;20136;-66
2023/04/02 12:36:51;;;;;;;2.15;0.60;;;;;;;;;;4974028;28;20565;-64
2023/04/02 12:39:18;;;;;;;1.40;0.47;;;;;;;;;;4975926;28;20125;-65
2023/04/02 12:41:45;;;;;;;2.70;0.65;;;;;;;;;;4974198;28;20137;-67
2023/04/02 12:44:22;;;;;;;1.25;0.40;;;;;;;;;;4970772;28;20519;-66
2023/04/02 12:46:50;;;;;;;0.93;0.40;;;;;;;;;;4973910;28;20060;-65
2023/04/02 12:49:35;;;;;;;1.20;0.43;;;;;;;;;;4976784;28;20463;-64
2023/04/02 12:52:12;;;;;;;1.15;0.40;;;;;;;;;;4973280;28;20056;-65
2023/04/02 12:54:53;;;;;;;2.75;0.75;;;;;;;;;;4975354;28;20065;-66
2023/04/02 12:57:21;;;;;;;1.55;0.60;;;;;;;;;;4975282;28;20065;-65
2023/04/02 12:59:48;;;;;;;1.85;0.60;;;;;;;;;;4974957;28;20050;-64
2023/04/02 13:02:17;;;;;;;2.50;0.60;;;;;;;;;;4975294;28;20054;-64
2023/04/02 13:04:48;;;;;;;0.90;0.40;;;;;;;;;;4974082;28;20042;-66
2023/04/02 13:07:17;;;;;;;2.20;0.60;;;;;;;;;;4974153;28;20042;-65
2023/04/02 13:09:51;;;;;;;1.35;0.50;;;;;;;;;;4972045;28;20057;-64
2023/04/02 13:12:36;;;;;;;2.97;0.60;;;;;;;;;;4973258;28;20229;-64
2023/04/02 13:15:07;;;;;;;2.03;0.52;;;;;;;;;;4967699;28;20038;-64
2023/04/02 13:17:38;;;;;;;1.02;0.40;;;;;;;;;;4974107;28;20173;-65
2023/04/02 13:20:24;;;;;;;1.90;0.57;;;;;;;;;;4974807;28;20042;-65
2023/04/02 13:22:50;;;;;;;1.98;0.55;;;;;;;;;;4972998;28;21897;-65
2023/04/02 13:25:17;;;;;;;3.15;0.50;;;;;;;;;;4969370;28;20039;-65
2023/04/02 13:27:44;;;;;;;1.77;0.47;;;;;;;;;;4974399;28;20038;-66
2023/04/02 13:30:18;;;;;;;2.88;0.80;;;;;;;;;;4988036;28;20031;-65
2023/04/02 13:32:45;;;;;;;1.90;0.60;;;;;;;;;;4972007;28;20042;-64
2023/04/02 13:35:12;;;;;;;1.92;0.68;;;;;;;;;;4986110;28;20509;-65
2023/04/02 13:37:38;;;;;;;0.75;0.40;;;;;;;;;;4963148;28;20042;-64
2023/04/02 13:40:05;;;;;;;1.45;0.52;;;;;;;;;;4974500;28;20053;-65
2023/04/02 13:42:32;;;;;;;1.65;0.60;;;;;;;;;;4983990;28;20093;-65
2023/04/02 13:44:58;;;;;;;3.67;0.60;;;;;;;;;;4974719;28;20043;-64
2023/04/02 13:47:25;;;;;;;2.47;0.50;;;;;;;;;;4973553;28;20046;-65
2023/04/02 13:49:52;;;;;;;1.25;0.50;;;;;;;;;;4974543;28;20492;-65
2023/04/02 13:52:18;;;;;;;4.97;0.68;;;;;;;;;;4972117;28;20042;-65
2023/04/02 13:54:54;;;;;;;2.15;0.68;;;;;;;;;;4974144;28;20034;-67
2023/04/02 13:57:21;;;;;;;2.63;0.77;;;;;;;;;;4984111;28;20065;-65
2023/04/02 13:59:48;;;;;;;2.22;0.63;;;;;;;;;;4974080;28;20502;-65
2023/04/02 14:02:18;;;;;;;3.67;0.75;;;;;;;;;;4972159;28;20111;-66
2023/04/02 14:04:48;;;;;;;3.70;0.70;;;;;;;;;;4984939;28;20045;-65
2023/04/02 14:07:34;;;;;;;2.72;0.65;;;;;;;;;;4973480;28;20078;-65
2023/04/02 14:10:05;;;;;;;1.67;0.65;;;;;;;;;;4972045;28;20038;-65
2023/04/02 14:12:50;;;;;;;2.70;0.75;;;;;;;;;;4987667;28;20121;-64
2023/04/02 14:15:36;;;;;;;1.55;0.55;;;;;;;;;;4986773;28;20874;-63
2023/04/02 14:18:20;;;;;;;4.07;0.80;;;;;;;;;;4972849;28;20050;-64
2023/04/02 14:20:56;;;;;;;2.13;0.65;;;;;;;;;;4973349;28;20054;-63
2023/04/02 14:23:23;;;;;;;5.95;0.90;;;;;;;;;;4971379;28;20042;-65
2023/04/02 14:26:08;;;;;;;2.60;0.70;;;;;;;;;;4972558;28;20038;-64
2023/04/02 14:28:56;;;;;;;2.22;0.75;;;;;;;;;;4985780;28;20046;-64
2023/04/02 14:31:30;;;;;;;1.73;0.60;;;;;;;;;;4944058;28;20046;-67
2023/04/02 14:34:15;;;;;;;1.38;0.50;;;;;;;;;;4976152;28;20137;-66
2023/04/02 14:36:44;;;;;;;3.30;0.65;;;;;;;;;;4973054;28;20050;-64
2023/04/02 14:39:16;;;;;;;1.77;0.50;;;;;;;;;;4974686;28;20093;-62
2023/04/02 14:41:47;;;;;;;4.38;0.80;;;;;;;;;;4973550;28;20077;-63
2023/04/02 14:44:15;;;;;;;2.28;0.80;;;;;;;;;;4969309;28;20418;-63
2023/04/02 14:46:42;;;;;;;1.33;0.60;;;;;;;;;;4968672;28;20581;-66
2023/04/02 14:49:09;;;;;;;2.20;0.60;;;;;;;;;;4969724;28;20593;-63
2023/04/02 14:51:46;;;;;;;1.77;0.50;;;;;;;;;;4974653;28;20535;-62
2023/04/02 14:54:12;;;;;;;3.83;0.73;;;;;;;;;;4977826;28;20479;-63
2023/04/02 14:56:44;;;;;;;2.08;0.57;;;;;;;;;;4975521;28;20057;-64
2023/04/02 14:59:10;;;;;;;1.45;0.50;;;;;;;;;;4973692;28;20040;-64
2023/04/02 15:01:40;;;;;;;3.42;0.77;;;;;;;;;;4973049;28;20564;-64
2023/04/02 15:04:12;;;;;;;5.00;0.82;;;;;;;;;;4971499;28;20097;-65
2023/04/02 15:06:42;;;;;;;4.25;0.70;;;;;;;;;;4973956;28;20043;-64
2023/04/02 15:09:12;;;;;;;2.38;0.45;;;;;;;;;;4974371;28;20042;-63
2023/04/02 15:11:41;;;;;;;1.55;0.50;;;;;;;;;;4974193;28;20281;-65
2023/04/02 15:14:25;;;;;;;2.53;0.60;;;;;;;;;;4974282;28;20402;-64